Time;durP1;ratioP1;P1;durP2;ratioP2;P2;SDS_P1;SDS_P2;PMS_P1;PMS_P2;Temp;Humidity;BMP_temperature;BMP_pressure;BME280_temperature;BME280_humidity;BME280_pressure;Samples;Min_cycle;Max_cycle;Signal;HPM_P1;HPM_P2
2022/03/08 00:02:18;;;;;;;44.43;21.90;;;-2.50;99.90;;;;;;5091929;28;20192;-59
2022/03/08 00:04:44;;;;;;;47.57;21.27;;;-2.50;99.90;;;;;;5091620;28;20694;-61
2022/03/08 00:07:10;;;;;;;50.73;22.07;;;-2.50;99.90;;;;;;5091823;28;20188;-60
2022/03/08 00:09:36;;;;;;;55.70;25.50;;;-2.50;99.90;;;;;;5092088;28;20187;-60
2022/03/08 00:12:02;;;;;;;48.60;22.63;;;-2.50;99.90;;;;;;5073273;28;20237;-59
2022/03/08 00:14:29;;;;;;;49.37;23.47;;;-2.50;99.90;;;;;;5073050;28;20550;-60
2022/03/08 00:16:55;;;;;;;52.80;24.43;;;-2.50;99.90;;;;;;5091380;28;20195;-60
2022/03/08 00:19:21;;;;;;;49.47;21.87;;;-2.50;99.90;;;;;;5073074;28;20184;-60
2022/03/08 00:21:47;;;;;;;44.77;21.63;;;-2.50;99.90;;;;;;5091442;28;20181;-59
2022/03/08 00:24:12;;;;;;;41.73;20.37;;;-2.50;99.90;;;;;;5073486;28;20267;-60
2022/03/08 00:26:40;;;;;;;43.97;20.60;;;-2.50;99.90;;;;;;5091625;28;20287;-59
2022/03/08 00:29:05;;;;;;;51.20;24.73;;;-2.50;99.90;;;;;;5091265;28;20180;-60
2022/03/08 00:31:31;;;;;;;46.87;21.17;;;-2.60;99.90;;;;;;5091132;28;20238;-58
2022/03/08 00:33:57;;;;;;;48.90;23.30;;;-2.60;99.90;;;;;;5055964;28;20726;-58
2022/03/08 00:36:23;;;;;;;52.60;24.67;;;-2.60;99.90;;;;;;5091145;28;20186;-59
2022/03/08 00:38:48;;;;;;;56.23;23.47;;;-2.60;99.90;;;;;;5091370;28;20183;-59
2022/03/08 00:41:14;;;;;;;39.27;17.77;;;-2.60;99.90;;;;;;5073172;28;20187;-58
2022/03/08 00:43:40;;;;;;;49.10;23.30;;;-2.60;99.90;;;;;;5073296;28;20640;-59
2022/03/08 00:46:06;;;;;;;35.93;18.20;;;-2.50;99.90;;;;;;5091558;28;20294;-59
2022/03/08 00:48:32;;;;;;;43.37;21.37;;;-2.50;99.90;;;;;;5091507;28;20632;-59
2022/03/08 00:50:58;;;;;;;38.93;19.53;;;-2.50;99.90;;;;;;5090815;28;20179;-59
2022/03/08 00:53:23;;;;;;;47.33;21.13;;;-2.50;99.90;;;;;;5091458;28;20222;-60
2022/03/08 00:55:49;;;;;;;54.03;24.07;;;-2.50;99.90;;;;;;5073570;28;20658;-59
2022/03/08 00:58:15;;;;;;;52.80;27.27;;;-2.50;99.90;;;;;;5091058;28;20186;-60
2022/03/08 01:00:41;;;;;;;43.00;20.03;;;-2.50;99.90;;;;;;5091586;28;20180;-59
2022/03/08 01:03:08;;;;;;;50.00;23.00;;;-2.50;99.90;;;;;;5091032;28;20184;-60
2022/03/08 01:05:34;;;;;;;53.10;24.30;;;-2.50;99.90;;;;;;5090636;28;20653;-59
2022/03/08 01:08:01;;;;;;;45.50;20.87;;;-2.50;99.90;;;;;;5090935;28;20224;-60
2022/03/08 01:10:28;;;;;;;42.77;18.87;;;-2.40;99.90;;;;;;5076959;28;20194;-61
2022/03/08 01:12:54;;;;;;;48.80;23.23;;;-2.40;99.90;;;;;;5060349;28;20215;-60
2022/03/08 01:15:24;;;;;;;41.50;18.47;;;-2.40;99.90;;;;;;5095292;28;20180;-59
2022/03/08 01:17:50;;;;;;;54.50;24.43;;;-2.40;99.90;;;;;;5095144;28;20188;-59
2022/03/08 01:20:16;;;;;;;50.30;24.23;;;-2.40;99.90;;;;;;5076566;28;20631;-59
2022/03/08 01:22:42;;;;;;;52.50;20.97;;;-2.40;99.90;;;;;;5095450;28;20179;-60
2022/03/08 01:25:10;;;;;;;31.47;15.43;;;-2.40;99.90;;;;;;5094960;28;20184;-61
2022/03/08 01:27:36;;;;;;;33.17;15.80;;;-2.40;99.90;;;;;;5095374;28;20183;-61
2022/03/08 01:30:06;;;;;;;49.33;21.63;;;-2.40;99.90;;;;;;5059695;28;20188;-59
2022/03/08 01:32:32;;;;;;;37.17;16.30;;;-2.40;99.90;;;;;;5095138;28;20223;-58
2022/03/08 01:34:58;;;;;;;49.90;22.67;;;-2.40;99.90;;;;;;5094671;28;20184;-62
2022/03/08 01:37:25;;;;;;;49.33;21.70;;;-2.40;99.90;;;;;;5095215;28;20184;-58
2022/03/08 01:39:50;;;;;;;50.33;21.63;;;-2.40;99.90;;;;;;5094831;28;20208;-59
2022/03/08 01:42:20;;;;;;;47.57;22.77;;;-2.40;99.90;;;;;;5094441;28;20678;-59
2022/03/08 01:44:46;;;;;;;32.33;14.97;;;-2.40;99.90;;;;;;5094798;28;20514;-60
2022/03/08 01:47:14;;;;;;;46.90;22.57;;;-2.30;99.90;;;;;;5094375;28;20180;-60
2022/03/08 01:49:40;;;;;;;49.50;22.37;;;-2.30;99.90;;;;;;5094849;28;20180;-60
2022/03/08 01:52:07;;;;;;;30.60;13.50;;;-2.30;99.90;;;;;;5094092;28;20630;-59
2022/03/08 01:54:33;;;;;;;47.93;23.37;;;-2.30;99.90;;;;;;5094729;28;20682;-59
2022/03/08 01:56:59;;;;;;;46.50;21.03;;;-2.30;99.90;;;;;;5094733;28;20263;-62
2022/03/08 01:59:24;;;;;;;43.23;19.00;;;-2.20;99.90;;;;;;5094655;28;20650;-61
2022/03/08 02:01:50;;;;;;;48.83;23.13;;;-2.20;99.90;;;;;;5076401;28;20279;-60
2022/03/08 02:04:16;;;;;;;43.27;20.60;;;-2.30;99.90;;;;;;5076392;28;20176;-60
2022/03/08 02:06:44;;;;;;;48.97;22.57;;;-2.20;99.90;;;;;;5094679;28;20666;-59
2022/03/08 02:09:11;;;;;;;53.03;22.23;;;-2.20;99.90;;;;;;5093913;28;20184;-59
2022/03/08 02:11:37;;;;;;;45.10;21.47;;;-2.20;99.90;;;;;;5094317;28;20186;-59
2022/03/08 02:14:03;;;;;;;52.23;20.73;;;-2.20;99.90;;;;;;5075825;28;20227;-59
2022/03/08 02:16:30;;;;;;;46.23;20.43;;;-2.20;99.90;;;;;;5093953;28;20184;-60
2022/03/08 02:18:55;;;;;;;50.77;23.57;;;-2.20;99.90;;;;;;5093834;28;20183;-65
2022/03/08 02:21:21;;;;;;;36.73;17.00;;;-2.20;99.90;;;;;;5093277;28;20180;-59
2022/03/08 02:23:47;;;;;;;41.50;20.77;;;-2.20;99.90;;;;;;5093893;28;20199;-60
2022/03/08 02:26:13;;;;;;;45.40;21.37;;;-2.20;99.90;;;;;;5093524;28;20552;-58
2022/03/08 02:28:40;;;;;;;43.40;20.47;;;-2.20;99.90;;;;;;5075819;28;20678;-59
2022/03/08 02:31:06;;;;;;;40.07;17.50;;;-2.20;99.90;;;;;;5093072;28;20216;-60
2022/03/08 02:33:32;;;;;;;46.67;21.17;;;-2.20;99.90;;;;;;5093782;28;20280;-59
2022/03/08 02:35:58;;;;;;;42.83;20.40;;;-2.20;99.90;;;;;;5093356;28;20198;-59
2022/03/08 02:38:24;;;;;;;42.53;20.87;;;-2.20;99.90;;;;;;5075179;28;20184;-59
2022/03/08 02:40:50;;;;;;;50.77;25.37;;;-2.20;99.90;;;;;;5093650;28;20701;-60
2022/03/08 02:43:17;;;;;;;43.83;20.90;;;-2.20;99.90;;;;;;5093456;28;20193;-58
2022/03/08 02:45:43;;;;;;;43.37;21.30;;;-2.20;99.90;;;;;;5075631;28;20617;-59
2022/03/08 02:48:10;;;;;;;52.00;21.63;;;-2.20;99.90;;;;;;5093316;28;20173;-58
2022/03/08 02:50:36;;;;;;;35.93;15.60;;;-2.20;99.90;;;;;;5093689;28;20180;-61
2022/03/08 02:53:03;;;;;;;46.30;20.60;;;-2.20;99.90;;;;;;5093045;28;20303;-60
2022/03/08 02:55:32;;;;;;;44.30;19.43;;;-2.20;99.90;;;;;;5074879;28;20190;-59
2022/03/08 02:57:58;;;;;;;40.20;19.67;;;-2.20;99.90;;;;;;5092893;28;20579;-62
2022/03/08 03:00:26;;;;;;;41.90;19.23;;;-2.20;99.90;;;;;;5093304;28;20188;-58
2022/03/08 03:02:52;;;;;;;45.57;21.97;;;-2.20;99.90;;;;;;5093055;28;20241;-60
2022/03/08 03:05:18;;;;;;;42.17;19.10;;;-2.20;99.90;;;;;;5092952;28;20181;-59
2022/03/08 03:07:44;;;;;;;38.23;18.97;;;-2.20;99.90;;;;;;5093320;28;20187;-59
2022/03/08 03:10:14;;;;;;;40.83;18.43;;;-2.20;99.90;;;;;;5092554;28;20180;-59
2022/03/08 03:12:40;;;;;;;37.80;17.83;;;-2.10;99.90;;;;;;5092352;28;20293;-60
2022/03/08 03:15:08;;;;;;;40.77;19.77;;;-2.20;99.90;;;;;;5074415;28;20254;-58
2022/03/08 03:17:34;;;;;;;35.03;17.30;;;-2.20;99.90;;;;;;5092098;28;20321;-59
2022/03/08 03:20:00;;;;;;;42.20;18.63;;;-2.20;99.90;;;;;;5092760;28;20676;-60
2022/03/08 03:22:26;;;;;;;41.57;19.23;;;-2.10;99.90;;;;;;5074707;28;20635;-59
2022/03/08 03:24:51;;;;;;;36.60;18.97;;;-2.10;99.90;;;;;;5092740;28;20711;-60
2022/03/08 03:27:17;;;;;;;37.47;17.97;;;-2.10;99.90;;;;;;5092333;28;20190;-59
2022/03/08 03:29:43;;;;;;;37.43;17.37;;;-2.10;99.90;;;;;;5092928;28;20188;-61
2022/03/08 03:32:09;;;;;;;41.13;19.03;;;-2.10;99.90;;;;;;5091213;28;20231;-60
2022/03/08 03:34:34;;;;;;;40.10;17.97;;;-2.10;99.90;;;;;;5074409;28;20191;-60
2022/03/08 03:37:00;;;;;;;29.83;14.63;;;-2.10;99.90;;;;;;5074245;28;20633;-60
2022/03/08 03:39:26;;;;;;;36.60;18.77;;;-2.00;99.90;;;;;;5092316;28;20192;-59
2022/03/08 03:41:52;;;;;;;36.60;18.97;;;-2.00;99.90;;;;;;5091849;28;20204;-60
2022/03/08 03:44:17;;;;;;;39.93;16.70;;;-2.00;99.90;;;;;;5092361;28;20188;-60
2022/03/08 03:46:43;;;;;;;32.53;15.23;;;-2.00;99.90;;;;;;5092819;28;20230;-61
2022/03/08 03:49:09;;;;;;;37.13;20.40;;;-2.00;99.90;;;;;;5073841;28;20183;-60
2022/03/08 03:51:35;;;;;;;35.40;17.57;;;-1.90;99.90;;;;;;5092317;28;20275;-59
2022/03/08 03:54:01;;;;;;;39.87;18.20;;;-1.90;99.90;;;;;;5091954;28;20687;-63
2022/03/08 03:56:26;;;;;;;37.37;18.50;;;-1.90;99.90;;;;;;5092201;28;20218;-60
2022/03/08 03:58:52;;;;;;;40.77;19.87;;;-1.90;99.90;;;;;;5074133;28;20188;-60
2022/03/08 04:01:18;;;;;;;26.20;13.90;;;-1.90;99.90;;;;;;5073490;28;20241;-59
2022/03/08 04:03:44;;;;;;;24.97;11.83;;;-1.90;99.90;;;;;;5092219;28;20656;-58
2022/03/08 04:06:09;;;;;;;32.30;15.93;;;-1.80;99.90;;;;;;5073698;28;20195;-59
2022/03/08 04:08:35;;;;;;;33.30;16.47;;;-1.80;99.90;;;;;;5092111;28;20177;-60
2022/03/08 04:11:01;;;;;;;31.97;15.93;;;-1.80;99.90;;;;;;5091563;28;20182;-66
2022/03/08 04:13:27;;;;;;;31.27;13.90;;;-1.70;99.90;;;;;;5091756;28;20575;-59
2022/03/08 04:15:53;;;;;;;32.70;16.13;;;-1.70;99.90;;;;;;5073657;28;20185;-59
2022/03/08 04:18:19;;;;;;;32.67;16.23;;;-1.70;99.90;;;;;;5073234;28;20181;-59
2022/03/08 04:20:46;;;;;;;31.47;16.60;;;-1.70;99.90;;;;;;5091612;28;20184;-59
2022/03/08 04:23:11;;;;;;;31.80;16.77;;;-1.70;99.90;;;;;;5073054;28;20636;-59
2022/03/08 04:25:37;;;;;;;29.83;16.00;;;-1.70;99.90;;;;;;5073583;28;20191;-60
2022/03/08 04:28:04;;;;;;;36.97;17.10;;;-1.70;99.90;;;;;;5090646;28;20184;-63
2022/03/08 04:30:30;;;;;;;23.73;12.30;;;-1.80;99.90;;;;;;5073101;28;20640;-61
2022/03/08 04:32:56;;;;;;;35.90;16.47;;;-1.80;99.90;;;;;;5091267;28;20278;-58
2022/03/08 04:35:22;;;;;;;32.93;15.90;;;-1.80;99.90;;;;;;5091051;28;20432;-59
2022/03/08 04:37:48;;;;;;;33.93;16.63;;;-1.90;99.90;;;;;;5073043;28;20263;-60
2022/03/08 04:40:15;;;;;;;35.03;16.30;;;-1.90;99.90;;;;;;5091018;28;20176;-63
2022/03/08 04:42:42;;;;;;;33.23;17.53;;;-1.90;99.90;;;;;;5091590;28;20272;-61
2022/03/08 04:45:10;;;;;;;37.03;16.57;;;-2.00;99.90;;;;;;5090819;28;20247;-58
2022/03/08 04:47:37;;;;;;;32.37;16.30;;;-2.00;99.90;;;;;;5091270;28;20188;-60
2022/03/08 04:50:10;;;;;;;38.30;17.80;;;-2.00;99.90;;;;;;5056465;28;20241;-59
2022/03/08 04:52:37;;;;;;;36.93;17.40;;;-1.90;99.90;;;;;;5091067;28;20656;-59
2022/03/08 04:55:04;;;;;;;29.57;15.73;;;-1.90;99.90;;;;;;5091263;28;20177;-65
2022/03/08 04:57:30;;;;;;;40.93;16.63;;;-1.90;99.90;;;;;;5090957;28;20204;-58
2022/03/08 04:59:56;;;;;;;34.10;16.57;;;-1.90;99.90;;;;;;5091283;28;20243;-60
2022/03/08 05:02:22;;;;;;;40.93;18.23;;;-1.90;99.90;;;;;;5090834;28;20181;-60
2022/03/08 05:04:47;;;;;;;36.33;16.70;;;-1.90;99.90;;;;;;5072604;28;20192;-60
2022/03/08 05:07:13;;;;;;;38.53;16.93;;;-1.90;99.90;;;;;;5072145;28;20192;-61
2022/03/08 05:09:39;;;;;;;34.10;16.37;;;-1.80;99.90;;;;;;5073106;28;20180;-54
2022/03/08 05:12:05;;;;;;;40.77;20.13;;;-1.80;99.90;;;;;;5090219;28;20225;-62
2022/03/08 05:14:32;;;;;;;37.43;16.93;;;-1.80;99.90;;;;;;5072396;28;20185;-58
2022/03/08 05:16:58;;;;;;;39.93;16.97;;;-1.80;99.90;;;;;;5091057;28;20173;-59
2022/03/08 05:19:23;;;;;;;40.17;18.07;;;-1.80;99.90;;;;;;5072273;28;20192;-60
2022/03/08 05:21:49;;;;;;;38.70;19.60;;;-1.70;99.90;;;;;;5090567;28;20180;-59
2022/03/08 05:24:15;;;;;;;36.23;16.80;;;-1.60;99.90;;;;;;5071917;28;20598;-60
2022/03/08 05:26:41;;;;;;;41.33;17.63;;;-1.60;99.90;;;;;;5090749;28;20226;-59
2022/03/08 05:29:08;;;;;;;30.87;15.97;;;-1.50;99.90;;;;;;5089608;28;20181;-62
2022/03/08 05:31:34;;;;;;;35.00;17.33;;;-1.50;99.90;;;;;;5068099;28;20647;-55
2022/03/08 05:34:00;;;;;;;36.00;17.00;;;-1.50;99.90;;;;;;5075074;28;20216;-60
2022/03/08 05:36:26;;;;;;;38.03;16.67;;;-1.50;99.90;;;;;;5067174;28;20188;-64
2022/03/08 05:38:52;;;;;;;38.67;16.60;;;-1.40;99.90;;;;;;5068917;28;20336;-60
2022/03/08 05:41:18;;;;;;;33.83;16.67;;;-1.40;99.90;;;;;;5087994;28;20739;-54
2022/03/08 05:43:44;;;;;;;35.67;17.67;;;-1.30;99.90;;;;;;5086680;28;20189;-63
2022/03/08 05:46:10;;;;;;;35.40;17.00;;;-1.20;99.90;;;;;;5088275;28;20244;-59
2022/03/08 05:48:36;;;;;;;42.60;17.67;;;-1.20;99.90;;;;;;5068720;28;20282;-58
2022/03/08 05:51:02;;;;;;;31.33;15.77;;;-1.20;99.90;;;;;;5085976;28;20192;-58
2022/03/08 05:53:28;;;;;;;34.97;16.83;;;-1.20;99.90;;;;;;5084158;28;20211;-58
2022/03/08 05:55:54;;;;;;;44.07;15.97;;;-1.10;99.90;;;;;;5086749;28;20184;-58
2022/03/08 05:58:19;;;;;;;36.80;17.13;;;-1.10;99.90;;;;;;5070494;28;20318;-55
2022/03/08 06:00:45;;;;;;;32.83;17.17;;;-1.00;99.90;;;;;;5089552;28;20184;-56
2022/03/08 06:03:11;;;;;;;36.17;17.87;;;-0.90;99.90;;;;;;5070426;28;20189;-61
2022/03/08 06:05:37;;;;;;;34.60;16.53;;;-0.80;99.90;;;;;;5072651;28;20310;-55
2022/03/08 06:08:04;;;;;;;26.30;12.43;;;-0.80;99.90;;;;;;5089990;28;20209;-56
2022/03/08 06:10:33;;;;;;;32.67;16.37;;;-0.80;99.90;;;;;;5072665;28;20199;-57
2022/03/08 06:12:59;;;;;;;37.90;18.07;;;-0.80;99.90;;;;;;5090455;28;20265;-54
2022/03/08 06:15:26;;;;;;;36.13;15.83;;;-0.80;99.90;;;;;;5091844;28;20554;-56
2022/03/08 06:17:52;;;;;;;27.03;12.70;;;-0.70;99.90;;;;;;5090868;28;20636;-59
2022/03/08 06:20:18;;;;;;;42.30;18.93;;;-0.70;99.90;;;;;;5090777;28;20212;-57
2022/03/08 06:22:44;;;;;;;37.60;18.00;;;-0.70;99.90;;;;;;5091435;28;20676;-60
2022/03/08 06:25:11;;;;;;;34.50;14.70;;;-0.70;99.90;;;;;;5089974;28;20195;-54
2022/03/08 06:27:37;;;;;;;38.77;19.87;;;-0.70;99.90;;;;;;5091177;28;20192;-57
2022/03/08 06:30:04;;;;;;;42.73;21.87;;;-0.70;99.90;;;;;;5090653;28;20264;-57
2022/03/08 06:32:29;;;;;;;41.63;21.80;;;-0.80;99.90;;;;;;5090658;28;20537;-61
2022/03/08 06:34:55;;;;;;;37.90;19.47;;;-0.80;99.90;;;;;;5090339;28;20189;-59
2022/03/08 06:37:21;;;;;;;45.10;21.73;;;-0.70;99.90;;;;;;5091645;28;20272;-58
2022/03/08 06:39:47;;;;;;;41.90;20.27;;;-0.70;99.90;;;;;;5089197;28;20612;-56
2022/03/08 06:42:13;;;;;;;41.27;18.73;;;-0.70;99.90;;;;;;5071765;28;20195;-55
2022/03/08 06:44:39;;;;;;;43.93;22.43;;;-0.70;99.90;;;;;;5091507;28;20193;-58
2022/03/08 06:47:09;;;;;;;44.90;21.20;;;-0.80;99.90;;;;;;5071276;28;20196;-59
2022/03/08 06:49:39;;;;;;;42.07;20.60;;;-0.90;99.90;;;;;;5089613;28;20545;-58
2022/03/08 06:52:07;;;;;;;44.13;21.43;;;-0.90;99.90;;;;;;5089585;28;20230;-60
2022/03/08 06:54:33;;;;;;;41.40;18.87;;;-0.90;99.90;;;;;;5089987;28;20176;-57
2022/03/08 06:56:59;;;;;;;45.20;22.20;;;-0.90;99.90;;;;;;5090602;28;20180;-59
2022/03/08 06:59:25;;;;;;;44.33;20.97;;;-0.80;99.90;;;;;;5090426;28;20449;-58
2022/03/08 07:01:51;;;;;;;37.37;18.40;;;-0.70;99.90;;;;;;5091276;28;20538;-57
2022/03/08 07:04:18;;;;;;;37.17;18.80;;;-0.60;99.90;;;;;;5091501;28;20188;-56
2022/03/08 07:06:43;;;;;;;44.07;21.40;;;-0.70;99.90;;;;;;5092518;28;20238;-57
2022/03/08 07:09:10;;;;;;;34.10;15.33;;;-0.80;99.90;;;;;;5092237;28;20223;-55
2022/03/08 07:11:36;;;;;;;45.70;24.03;;;-0.70;99.90;;;;;;5092087;28;20201;-60
2022/03/08 07:14:03;;;;;;;53.87;23.37;;;-0.60;99.90;;;;;;5073114;28;20216;-60
2022/03/08 07:16:29;;;;;;;50.50;24.13;;;-0.50;99.90;;;;;;5073922;28;20192;-57
2022/03/08 07:18:54;;;;;;;48.93;21.43;;;-0.50;99.90;;;;;;5092342;28;20228;-57
2022/03/08 07:21:20;;;;;;;43.93;23.10;;;-0.50;99.90;;;;;;5091990;28;20177;-56
2022/03/08 07:23:46;;;;;;;52.10;24.73;;;-0.40;99.90;;;;;;5092565;28;20181;-57
2022/03/08 07:26:12;;;;;;;49.77;24.70;;;-0.30;99.90;;;;;;5092181;28;20467;-61
2022/03/08 07:28:38;;;;;;;41.97;19.77;;;-0.20;99.90;;;;;;5091999;28;20176;-57
2022/03/08 07:31:04;;;;;;;52.83;22.40;;;-0.10;99.90;;;;;;5073293;28;20233;-55
2022/03/08 07:33:30;;;;;;;41.47;19.90;;;0.10;99.90;;;;;;5091518;28;20245;-54
2022/03/08 07:35:56;;;;;;;50.50;23.20;;;0.10;99.90;;;;;;5092561;28;20184;-56
2022/03/08 07:38:21;;;;;;;38.50;18.83;;;0.10;99.90;;;;;;5073849;28;20189;-60
2022/03/08 07:40:47;;;;;;;51.20;24.23;;;0.10;99.90;;;;;;5092102;28;20178;-57
2022/03/08 07:43:13;;;;;;;48.97;23.97;;;0.10;99.90;;;;;;5073848;28;20195;-58
2022/03/08 07:45:39;;;;;;;51.70;23.90;;;0.20;99.90;;;;;;5092310;28;20184;-59
2022/03/08 07:48:05;;;;;;;43.93;22.30;;;0.40;99.90;;;;;;5092162;28;20177;-53
2022/03/08 07:50:32;;;;;;;47.87;23.37;;;0.40;99.90;;;;;;5091922;28;20217;-58
2022/03/08 07:52:59;;;;;;;47.57;21.93;;;0.30;99.90;;;;;;5092210;28;20301;-55
2022/03/08 07:55:27;;;;;;;43.67;22.43;;;0.30;99.90;;;;;;5073752;28;20207;-57
2022/03/08 07:57:53;;;;;;;42.63;20.70;;;0.30;99.90;;;;;;5073674;28;20242;-56
2022/03/08 08:00:18;;;;;;;44.33;21.27;;;0.40;99.90;;;;;;5090939;28;20189;-56
2022/03/08 08:02:44;;;;;;;44.73;22.20;;;0.50;99.90;;;;;;5091967;28;20225;-58
2022/03/08 08:05:10;;;;;;;39.53;19.73;;;0.60;99.90;;;;;;5090967;28;20586;-53
2022/03/08 08:07:36;;;;;;;36.70;18.57;;;0.60;99.90;;;;;;5090506;28;20182;-54
2022/03/08 08:10:02;;;;;;;35.20;17.53;;;0.40;99.90;;;;;;5091013;28;20225;-55
2022/03/08 08:12:28;;;;;;;34.33;17.97;;;0.50;99.90;;;;;;5090972;28;20214;-58
2022/03/08 08:14:54;;;;;;;33.63;16.10;;;0.30;99.90;;;;;;5091250;28;20660;-58
2022/03/08 08:17:20;;;;;;;34.80;16.90;;;0.20;99.90;;;;;;5072920;28;20190;-58
2022/03/08 08:19:45;;;;;;;38.43;16.80;;;0.20;99.90;;;;;;5072407;28;20189;-58
2022/03/08 08:22:11;;;;;;;25.63;12.53;;;0.20;99.90;;;;;;5091582;28;20177;-57
2022/03/08 08:24:37;;;;;;;29.50;16.33;;;0.20;99.90;;;;;;5090932;28;20267;-55
2022/03/08 08:27:03;;;;;;;28.40;15.93;;;0.10;99.90;;;;;;5072927;28;20602;-56
2022/03/08 08:29:29;;;;;;;31.77;16.93;;;0.10;99.90;;;;;;5072347;28;20227;-60
2022/03/08 08:31:55;;;;;;;29.50;16.80;;;0.20;99.90;;;;;;5090445;28;20255;-54
2022/03/08 08:34:20;;;;;;;34.83;16.20;;;0.40;99.90;;;;;;5090852;28;20225;-56
2022/03/08 08:36:47;;;;;;;32.23;16.00;;;0.50;99.90;;;;;;5090764;28;20189;-56
2022/03/08 08:39:14;;;;;;;29.60;15.70;;;0.70;99.90;;;;;;5090826;28;20178;-58
2022/03/08 08:41:44;;;;;;;30.20;16.33;;;0.90;99.90;;;;;;5072807;28;20242;-59
2022/03/08 08:44:10;;;;;;;28.20;14.17;;;1.20;99.90;;;;;;5090852;28;20851;-60
2022/03/08 08:46:36;;;;;;;29.00;16.83;;;1.30;99.90;;;;;;5090071;28;20183;-55
2022/03/08 08:49:03;;;;;;;29.13;15.67;;;1.40;99.90;;;;;;5090642;28;20270;-54
2022/03/08 08:51:29;;;;;;;30.97;16.20;;;1.60;99.90;;;;;;5072003;28;20255;-57
2022/03/08 08:53:55;;;;;;;30.87;18.87;;;1.70;99.90;;;;;;5090452;28;20237;-56
2022/03/08 08:56:21;;;;;;;26.57;15.57;;;1.50;99.90;;;;;;5090154;28;20175;-56
2022/03/08 08:58:47;;;;;;;29.70;16.03;;;1.40;99.90;;;;;;5090519;28;20540;-55
2022/03/08 09:01:13;;;;;;;27.37;14.30;;;1.50;99.90;;;;;;5090417;28;20188;-55
2022/03/08 09:03:39;;;;;;;28.40;15.40;;;1.50;99.90;;;;;;5090504;28;20255;-58
2022/03/08 09:06:05;;;;;;;26.13;14.00;;;1.40;99.90;;;;;;5090469;28;20183;-59
2022/03/08 09:08:31;;;;;;;30.80;15.50;;;1.20;99.90;;;;;;5089823;28;20229;-56
2022/03/08 09:10:56;;;;;;;26.60;13.87;;;1.20;99.90;;;;;;5090564;28;20651;-53
2022/03/08 09:13:23;;;;;;;23.00;12.80;;;1.30;99.90;;;;;;5090383;28;20271;-58
2022/03/08 09:15:49;;;;;;;26.67;13.23;;;1.30;99.90;;;;;;5091307;28;20232;-57
2022/03/08 09:18:16;;;;;;;26.40;14.30;;;1.40;99.90;;;;;;5090533;28;20554;-58
2022/03/08 09:20:42;;;;;;;21.30;11.47;;;1.50;99.90;;;;;;5072158;28;20658;-57
2022/03/08 09:23:09;;;;;;;22.43;12.60;;;1.40;99.90;;;;;;5090796;28;20183;-60
2022/03/08 09:25:36;;;;;;;21.07;12.03;;;1.20;99.90;;;;;;5090104;28;20187;-59
2022/03/08 09:28:02;;;;;;;22.63;13.10;;;1.20;99.90;;;;;;5090673;28;20211;-60
2022/03/08 09:30:29;;;;;;;22.23;11.33;;;1.40;99.90;;;;;;5090216;28;20179;-60
2022/03/08 09:32:58;;;;;;;22.87;11.63;;;1.40;99.90;;;;;;5093997;28;20240;-59
2022/03/08 09:35:27;;;;;;;21.10;10.97;;;1.60;99.90;;;;;;5093595;28;20270;-58
2022/03/08 09:37:54;;;;;;;25.97;12.23;;;1.80;99.90;;;;;;5094168;28;20177;-61
2022/03/08 09:40:20;;;;;;;18.30;10.53;;;2.10;99.90;;;;;;5093583;28;20621;-60
2022/03/08 09:42:47;;;;;;;20.97;10.30;;;2.20;99.90;;;;;;5094101;28;20249;-60
2022/03/08 09:45:14;;;;;;;21.17;10.60;;;2.10;99.90;;;;;;5091685;28;20651;-61
2022/03/08 09:47:41;;;;;;;19.60;9.97;;;2.10;99.90;;;;;;5092555;28;20229;-59
2022/03/08 09:50:10;;;;;;;19.90;10.20;;;2.20;99.90;;;;;;5094028;28;20176;-62
2022/03/08 09:52:38;;;;;;;20.00;10.00;;;2.10;99.90;;;;;;5092328;28;20212;-62
2022/03/08 09:55:06;;;;;;;19.17;10.53;;;2.00;99.90;;;;;;5093869;28;20520;-60
2022/03/08 09:57:32;;;;;;;18.40;10.37;;;1.90;99.90;;;;;;5074520;28;20196;-62
2022/03/08 09:59:58;;;;;;;19.57;11.00;;;1.90;99.90;;;;;;5093431;28;20207;-61
2022/03/08 10:02:25;;;;;;;17.17;9.70;;;2.00;99.90;;;;;;5074566;28;20191;-58
2022/03/08 10:05:05;;;;;;;19.97;9.97;;;2.10;99.90;;;;;;5092871;28;20184;-61
2022/03/08 10:07:31;;;;;;;16.00;9.67;;;2.30;99.90;;;;;;5093258;28;20298;-61
2022/03/08 10:09:57;;;;;;;17.70;9.97;;;2.20;99.90;;;;;;5093314;28;20183;-59
2022/03/08 10:12:24;;;;;;;17.03;10.63;;;2.20;99.90;;;;;;5093326;28;20219;-59
2022/03/08 10:14:50;;;;;;;19.23;11.67;;;2.70;99.90;;;;;;5093251;28;20542;-61
2022/03/08 10:17:40;;;;;;;18.87;10.60;;;2.50;99.90;;;;;;5074844;28;20181;-58
2022/03/08 10:20:08;;;;;;;22.80;11.77;;;2.50;99.90;;;;;;5075322;28;20223;-60
2022/03/08 10:22:40;;;;;;;16.63;10.63;;;2.60;99.90;;;;;;5093230;28;20187;-61
2022/03/08 10:25:25;;;;;;;16.37;8.83;;;2.80;99.90;;;;;;5093207;28;20173;-58
2022/03/08 10:27:54;;;;;;;14.90;7.40;;;2.40;99.90;;;;;;5092971;28;20268;-60
2022/03/08 10:30:21;;;;;;;10.37;6.00;;;1.90;99.90;;;;;;5092674;28;20255;-62
2022/03/08 10:32:48;;;;;;;11.17;6.50;;;1.70;99.90;;;;;;5092604;28;20237;-61
2022/03/08 10:35:28;;;;;;;13.73;6.77;;;1.90;99.90;;;;;;5092581;28;20193;-62
2022/03/08 10:37:57;;;;;;;11.07;5.47;;;2.10;99.90;;;;;;5074028;28;20274;-62
2022/03/08 10:40:35;;;;;;;10.27;6.67;;;2.40;99.90;;;;;;5092212;28;20263;-63
2022/03/08 10:43:22;;;;;;;9.27;5.63;;;2.40;99.90;;;;;;5074270;28;20231;-62
2022/03/08 10:45:52;;;;;;;8.80;4.80;;;2.20;99.90;;;;;;5074084;28;20181;-59
2022/03/08 10:48:20;;;;;;;8.03;4.17;;;1.80;99.90;;;;;;5092689;28;20265;-57
2022/03/08 10:50:49;;;;;;;9.40;5.60;;;1.30;99.90;;;;;;5091747;28;20185;-54
2022/03/08 10:53:15;;;;;;;8.43;4.93;;;1.10;99.90;;;;;;5091669;28;20302;-56
2022/03/08 10:55:50;;;;;;;9.50;5.63;;;0.90;99.90;;;;;;5073418;28;20273;-55
2022/03/08 10:58:19;;;;;;;11.13;5.23;;;0.60;99.90;;;;;;5091177;28;20277;-55
2022/03/08 11:00:54;;;;;;;7.17;4.10;;;0.50;99.90;;;;;;5072805;28;20201;-60
2022/03/08 11:03:21;;;;;;;7.50;2.77;;;0.10;99.90;;;;;;5073927;28;20186;-53
2022/03/08 11:05:50;;;;;;;3.53;2.17;;;0.00;99.90;;;;;;5091795;28;20179;-58
2022/03/08 11:08:17;;;;;;;5.10;2.20;;;0.00;99.90;;;;;;5091347;28;20597;-53
2022/03/08 11:10:44;;;;;;;6.10;3.13;;;0.10;99.90;;;;;;5073059;28;20193;-61
2022/03/08 11:13:11;;;;;;;5.23;2.47;;;0.10;99.90;;;;;;5073165;28;20220;-57
2022/03/08 11:15:39;;;;;;;5.50;2.70;;;0.10;99.90;;;;;;5091283;28;20173;-56
2022/03/08 11:18:08;;;;;;;8.50;3.47;;;0.10;99.90;;;;;;5073448;28;20182;-55
2022/03/08 11:20:36;;;;;;;8.00;3.20;;;0.10;99.90;;;;;;5090832;28;20183;-57
2022/03/08 11:23:02;;;;;;;7.03;3.63;;;0.10;99.90;;;;;;5073070;28;20188;-52
2022/03/08 11:25:31;;;;;;;5.80;3.33;;;0.30;99.90;;;;;;5091012;28;20185;-56
2022/03/08 11:27:59;;;;;;;7.83;3.37;;;0.50;99.90;;;;;;5091142;28;20313;-54
2022/03/08 11:30:33;;;;;;;6.37;3.60;;;0.70;99.90;;;;;;5090653;28;20269;-63
2022/03/08 11:33:14;;;;;;;7.93;4.03;;;1.10;99.90;;;;;;5091500;28;20229;-56
2022/03/08 11:36:00;;;;;;;4.50;2.53;;;1.80;99.90;;;;;;5091080;28;20257;-59
2022/03/08 11:38:26;;;;;;;4.47;2.67;;;1.80;99.90;;;;;;5091277;28;20188;-57
2022/03/08 11:41:00;;;;;;;5.97;1.80;;;2.00;99.90;;;;;;5091008;28;20181;-52
2022/03/08 11:43:42;;;;;;;5.30;2.73;;;2.10;99.90;;;;;;5091313;28;20287;-59
2022/03/08 11:46:19;;;;;;;4.77;2.20;;;2.40;99.90;;;;;;5091041;28;20627;-59
2022/03/08 11:48:55;;;;;;;5.03;2.37;;;2.80;99.90;;;;;;5090912;28;20191;-56
2022/03/08 11:51:23;;;;;;;4.20;2.10;;;2.70;99.90;;;;;;5090657;28;20177;-52
2022/03/08 11:54:00;;;;;;;3.67;2.20;;;2.50;99.90;;;;;;5090094;28;20284;-53
2022/03/08 11:56:26;;;;;;;4.37;2.20;;;2.50;99.90;;;;;;5091314;28;20272;-65
2022/03/08 11:58:52;;;;;;;3.87;1.80;;;2.10;99.90;;;;;;5091209;28;20201;-55
2022/03/08 12:01:28;;;;;;;4.40;2.23;;;1.90;99.90;;;;;;5091151;28;20186;-59
2022/03/08 12:03:56;;;;;;;5.67;2.73;;;1.80;99.90;;;;;;5090394;28;20636;-56
2022/03/08 12:06:30;;;;;;;5.97;2.70;;;2.50;99.90;;;;;;5090693;28;20207;-57
2022/03/08 12:09:23;;;;;;;3.63;2.33;;;4.00;99.90;;;;;;5091132;28;20184;-55
2022/03/08 12:12:02;;;;;;;7.07;3.13;;;5.60;99.90;;;;;;5068695;28;20247;-59
2022/03/08 12:14:31;;;;;;;4.43;2.53;;;6.20;99.90;;;;;;5090483;28;20318;-60
2022/03/08 12:17:07;;;;;;;6.33;2.70;;;6.30;99.90;;;;;;5090610;28;20613;-62
2022/03/08 12:19:47;;;;;;;4.47;2.40;;;7.00;98.50;;;;;;5090622;28;20183;-60
2022/03/08 12:22:21;;;;;;;4.63;2.27;;;6.90;97.10;;;;;;5072625;28;20171;-60
2022/03/08 12:25:13;;;;;;;5.87;2.70;;;7.10;96.70;;;;;;5072182;28;20203;-56
2022/03/08 12:27:50;;;;;;;3.00;2.00;;;7.40;93.70;;;;;;5090722;28;20248;-61
2022/03/08 12:30:16;;;;;;;3.17;1.90;;;8.20;92.60;;;;;;5091320;28;20268;-59
2022/03/08 12:32:43;;;;;;;4.30;1.90;;;8.40;88.10;;;;;;5089763;28;20312;-60
2022/03/08 12:35:12;;;;;;;5.57;1.87;;;7.80;86.50;;;;;;5090661;28;20632;-60